Time;durP1;ratioP1;P1;durP2;ratioP2;P2;SDS_P1;SDS_P2;PMS_P1;PMS_P2;Temp;Humidity;BMP_temperature;BMP_pressure;BME280_temperature;BME280_humidity;BME280_pressure;Samples;Min_cycle;Max_cycle;Signal;HPM_P1;HPM_P2
2023/05/05 00:00:19;;;;;;;2.50;1.77;;;18.10;82.30;;;18.48;74.99;100859.75;5274421;28;20097;-67
2023/05/05 00:02:51;;;;;;;3.00;1.98;;;18.10;83.60;;;18.41;74.63;100852.69;5270396;28;20131;-67
2023/05/05 00:05:24;;;;;;;2.25;1.83;;;18.00;84.00;;;18.32;75.09;100853.56;5281570;28;20032;-67
2023/05/05 00:07:59;;;;;;;3.85;2.13;;;17.90;84.60;;;18.24;76.06;100846.47;5277316;28;20663;-67
2023/05/05 00:10:31;;;;;;;3.28;2.40;;;17.90;86.10;;;18.15;75.89;100845.56;5270609;28;20050;-67
2023/05/05 00:13:03;;;;;;;2.40;2.20;;;17.80;87.20;;;18.11;76.33;100849.03;5270435;28;20562;-68
2023/05/05 00:15:35;;;;;;;3.63;2.67;;;17.70;87.30;;;18.09;77.19;100845.53;5281706;28;20138;-67
2023/05/05 00:18:08;;;;;;;3.85;2.25;;;17.70;88.80;;;18.08;76.82;100842.88;5275049;28;20051;-67
2023/05/05 00:20:41;;;;;;;3.42;2.22;;;17.70;89.20;;;18.06;76.12;100845.53;5274522;28;20492;-67
2023/05/05 00:23:14;;;;;;;3.13;2.15;;;17.70;89.00;;;18.06;76.12;100840.25;5266151;28;20044;-67
2023/05/05 00:25:47;;;;;;;2.50;1.92;;;17.70;89.40;;;18.05;76.45;100846.38;5274719;28;20043;-67
2023/05/05 00:28:21;;;;;;;3.25;2.00;;;17.70;90.10;;;18.03;76.91;100834.94;5265895;28;20078;-67
2023/05/05 00:30:54;;;;;;;3.75;2.60;;;17.60;90.50;;;17.99;75.98;100832.25;5267619;28;20068;-67
2023/05/05 00:33:27;;;;;;;3.47;2.38;;;17.60;90.20;;;17.96;75.72;100827.88;5268511;28;20106;-67
2023/05/05 00:35:59;;;;;;;3.40;2.47;;;17.60;90.20;;;17.93;76.37;100833.13;5232828;28;20502;-67
2023/05/05 00:38:33;;;;;;;3.78;2.47;;;17.60;90.60;;;17.81;78.21;100833.06;5217181;28;20044;-67
2023/05/05 00:41:06;;;;;;;3.55;2.83;;;17.50;91.50;;;17.73;79.42;100826.84;5166124;28;20050;-67
2023/05/05 00:43:39;;;;;;;3.65;2.58;;;17.40;92.50;;;17.69;79.43;100831.19;5172128;28;20042;-67
2023/05/05 00:46:23;;;;;;;3.58;2.42;;;17.30;93.10;;;17.68;79.57;100831.19;5169732;28;20127;-67
2023/05/05 00:48:56;;;;;;;3.53;2.38;;;17.30;93.20;;;17.63;80.24;100834.69;5177106;28;20050;-67
2023/05/05 00:51:28;;;;;;;3.28;2.10;;;17.30;93.90;;;17.59;81.01;100827.59;5155812;28;20107;-67
2023/05/05 00:54:03;;;;;;;3.35;2.30;;;17.20;94.60;;;17.58;81.77;100828.47;5156571;28;20051;-67
2023/05/05 00:56:37;;;;;;;2.28;2.03;;;17.20;95.40;;;17.54;82.20;100828.44;5142804;28;20046;-67
2023/05/05 00:59:10;;;;;;;2.90;2.17;;;17.10;96.00;;;17.49;82.90;100838.97;5142827;28;20054;-67
2023/05/05 01:01:42;;;;;;;2.60;2.20;;;17.10;96.70;;;17.45;83.52;100839.81;5194185;28;20090;-67
2023/05/05 01:04:14;;;;;;;2.70;2.20;;;17.10;97.50;;;17.39;83.29;100831.84;5142021;28;20046;-67
2023/05/05 01:06:57;;;;;;;4.18;2.03;;;17.00;97.60;;;17.37;83.74;100838.88;5151900;28;20034;-66
2023/05/05 01:09:43;;;;;;;2.83;2.22;;;17.00;98.10;;;17.35;83.97;100838.00;5160938;28;20049;-67
2023/05/05 01:12:27;;;;;;;2.25;2.05;;;16.90;98.50;;;17.30;84.15;100840.59;5158542;28;20050;-66
2023/05/05 01:15:06;;;;;;;3.03;2.13;;;16.90;98.70;;;17.25;84.57;100837.03;5147105;28;20396;-67
2023/05/05 01:17:46;;;;;;;3.25;2.40;;;16.80;99.10;;;17.23;84.42;100844.03;5151622;28;20046;-67
2023/05/05 01:20:25;;;;;;;3.42;2.35;;;16.80;99.20;;;17.23;84.43;100848.44;5162099;28;20519;-68
2023/05/05 01:23:05;;;;;;;2.85;2.35;;;16.80;99.40;;;17.19;84.50;100849.25;5148369;28;20050;-68
2023/05/05 01:26:01;;;;;;;4.43;2.40;;;16.80;99.60;;;17.16;85.10;100842.22;5145520;28;20108;-66
2023/05/05 01:29:10;;;;;;;3.08;2.03;;;16.70;99.90;;;17.11;85.49;100837.78;5194675;28;20047;-68
2023/05/05 01:31:51;;;;;;;3.55;2.42;;;16.70;99.90;;;17.04;85.88;100844.75;5162007;28;20047;-67
2023/05/05 01:34:28;;;;;;;2.65;1.95;;;16.60;99.90;;;16.97;86.25;100842.94;5178648;28;20107;-66
2023/05/05 01:37:12;;;;;;;3.90;2.25;;;16.60;99.90;;;16.93;86.47;100844.63;5148777;28;20134;-66
2023/05/05 01:39:51;;;;;;;3.17;2.10;;;16.50;99.90;;;16.90;86.56;100841.97;5165366;28;20051;-67
2023/05/05 01:42:25;;;;;;;3.03;1.90;;;16.50;99.90;;;16.86;86.54;100842.81;5158446;28;20388;-67
2023/05/05 01:44:59;;;;;;;2.72;1.92;;;16.50;99.90;;;16.79;87.03;100844.50;5140731;28;20184;-67
2023/05/05 01:47:34;;;;;;;3.67;2.10;;;16.40;99.90;;;16.74;87.73;100853.22;5159499;28;20126;-67
2023/05/05 01:50:09;;;;;;;3.53;2.38;;;16.40;99.90;;;16.67;88.18;100857.50;5156516;28;20050;-67
2023/05/05 01:52:44;;;;;;;2.60;1.70;;;16.30;99.90;;;16.59;88.91;100855.66;5177341;28;20135;-67
2023/05/05 01:55:20;;;;;;;3.35;2.03;;;16.20;99.90;;;16.54;89.46;100860.84;5165675;28;20042;-67
2023/05/05 01:57:54;;;;;;;3.03;2.25;;;16.10;99.90;;;16.49;89.20;100858.16;5141376;28;20166;-67
2023/05/05 02:00:28;;;;;;;4.45;2.20;;;16.10;99.90;;;16.40;89.16;100858.06;5201136;28;20051;-67
2023/05/05 02:03:05;;;;;;;3.97;2.53;;;16.00;99.90;;;16.29;89.54;100857.03;5152747;28;20070;-67
2023/05/05 02:05:39;;;;;;;3.38;2.42;;;16.00;99.90;;;16.23;90.43;100864.84;5202659;28;20052;-67
2023/05/05 02:08:12;;;;;;;;;;;15.90;99.90;;;16.17;90.99;100864.78;5148293;28;20043;-67
2023/05/05 02:10:47;;;;;;;3.58;2.20;;;15.80;99.90;;;16.08;91.44;100869.91;5153235;28;19925;-67
2023/05/05 02:13:22;;;;;;;3.58;2.67;;;15.70;99.90;;;16.01;92.24;100866.31;5153411;28;20409;-67
2023/05/05 02:15:56;;;;;;;3.50;2.47;;;15.70;99.90;;;15.96;93.09;100871.50;5192996;28;20825;-67
2023/05/05 02:18:34;;;;;;;4.22;2.65;;;15.60;99.90;;;15.92;93.96;100874.97;5169411;28;20046;-67
2023/05/05 02:21:07;;;;;;;3.47;2.40;;;15.60;99.90;;;15.91;94.20;100873.22;5192030;28;20055;-67
2023/05/05 02:23:40;;;;;;;4.30;2.38;;;15.60;99.90;;;15.87;94.38;100865.25;5198644;28;20062;-66
2023/05/05 02:26:14;;;;;;;3.97;2.45;;;15.50;99.90;;;15.83;94.71;100864.31;5157279;28;20418;-66
2023/05/05 02:28:51;;;;;;;4.25;2.22;;;15.50;99.90;;;15.79;95.41;100867.78;5220597;28;20032;-67
2023/05/05 02:31:27;;;;;;;3.33;2.45;;;15.40;99.90;;;15.76;96.11;100872.97;5165194;28;20042;-68
2023/05/05 02:34:05;;;;;;;3.72;2.45;;;15.40;99.90;;;15.76;96.27;100874.72;5154528;28;20046;-68
2023/05/05 02:36:43;;;;;;;3.50;2.25;;;15.40;99.90;;;15.73;96.61;100872.94;5163225;28;20100;-67
2023/05/05 02:39:26;;;;;;;4.47;2.67;;;15.40;99.90;;;15.70;96.75;100880.75;5151830;28;20050;-67
2023/05/05 02:42:01;;;;;;;4.30;2.53;;;15.40;99.90;;;15.65;96.98;100887.72;5165778;28;20051;-67
2023/05/05 02:44:36;;;;;;;3.67;2.50;;;15.30;99.90;;;15.58;96.58;100891.91;5164472;28;20566;-67
2023/05/05 02:47:09;;;;;;;4.22;2.60;;;15.30;99.90;;;15.52;96.40;100889.22;5145986;28;20477;-67
2023/05/05 02:49:43;;;;;;;4.57;2.58;;;15.20;99.90;;;15.48;96.90;100892.66;5152790;28;20046;-66
2023/05/05 02:52:16;;;;;;;3.92;2.75;;;15.10;99.90;;;15.46;97.06;100892.63;5148218;28;20055;-67
2023/05/05 02:54:49;;;;;;;4.50;2.63;;;15.10;99.90;;;15.45;97.08;100887.31;5152511;28;20039;-67
2023/05/05 02:57:32;;;;;;;5.28;3.08;;;15.10;99.90;;;15.40;97.86;100889.91;5152155;28;20522;-68
2023/05/05 03:00:08;;;;;;;;;;;15.10;99.90;;;15.40;98.61;100892.53;5143817;28;20099;-67
2023/05/05 03:02:48;;;;;;;3.88;2.67;;;15.10;99.90;;;15.38;98.44;100896.84;5166296;28;20363;-68
2023/05/05 03:05:33;;;;;;;4.57;2.78;;;15.00;99.90;;;15.38;98.78;100901.22;5150951;28;20616;-66
2023/05/05 03:08:16;;;;;;;4.90;2.83;;;15.00;99.90;;;15.35;99.27;100895.94;5160294;28;20518;-67
2023/05/05 03:10:58;;;;;;;3.85;2.80;;;15.00;99.90;;;15.32;99.65;100899.41;5140848;28;20647;-67
2023/05/05 03:13:35;;;;;;;4.32;2.65;;;15.00;99.90;;;15.32;100.00;100904.66;5157988;28;20388;-68
2023/05/05 03:16:09;;;;;;;4.05;2.63;;;15.00;99.90;;;15.32;100.00;100904.66;5154037;28;20126;-67
2023/05/05 03:18:42;;;;;;;4.05;2.78;;;15.00;99.90;;;15.31;100.00;100899.34;5154790;28;20042;-67
2023/05/05 03:21:17;;;;;;;4.47;2.63;;;15.00;99.90;;;15.31;100.00;100894.97;5141852;28;20741;-67
2023/05/05 03:23:50;;;;;;;5.15;3.08;;;15.00;99.90;;;15.32;100.00;100901.13;5146802;28;20053;-67
2023/05/05 03:26:26;;;;;;;4.18;2.80;;;15.00;99.90;;;15.33;100.00;100897.66;5152321;28;20076;-67
2023/05/05 03:28:59;;;;;;;5.20;2.80;;;15.00;99.90;;;15.35;100.00;100904.69;5144206;28;20100;-67
2023/05/05 03:31:36;;;;;;;5.50;3.15;;;15.00;99.90;;;15.36;100.00;100902.94;5153005;28;20046;-66
2023/05/05 03:34:08;;;;;;;4.88;2.67;;;15.00;99.90;;;15.34;100.00;100900.31;5152006;28;20495;-66
2023/05/05 03:36:48;;;;;;;3.78;2.45;;;15.00;99.90;;;15.29;100.00;100896.72;5164092;28;20035;-67
2023/05/05 03:39:21;;;;;;;;;;;14.90;99.90;;;15.24;100.00;100907.97;5237801;28;20051;-67
2023/05/05 03:41:54;;;;;;;4.65;2.60;;;14.90;99.90;;;15.20;100.00;100901.81;5236489;28;19921;-67
2023/05/05 03:44:28;;;;;;;3.60;2.42;;;14.90;99.90;;;15.19;100.00;100902.63;5237816;28;20050;-67
2023/05/05 03:47:00;;;;;;;3.70;2.70;;;14.90;99.90;;;15.18;100.00;100906.13;5247161;28;20065;-67
2023/05/05 03:49:34;;;;;;;4.85;2.78;;;14.80;99.90;;;15.17;100.00;100912.25;5166994;28;20038;-67
2023/05/05 03:52:09;;;;;;;4.97;2.90;;;14.90;99.90;;;15.18;100.00;100908.75;5264333;28;20050;-67
2023/05/05 03:54:42;;;;;;;3.90;2.60;;;14.80;99.90;;;15.15;100.00;100906.97;5240432;28;20072;-67
2023/05/05 03:57:14;;;;;;;3.53;2.50;;;14.80;99.90;;;15.17;100.00;100907.00;5241332;28;20114;-67
2023/05/05 03:59:46;;;;;;;4.60;2.70;;;14.90;99.90;;;15.20;100.00;100907.06;5245359;28;20050;-67
2023/05/05 04:02:21;;;;;;;;;;;14.80;99.90;;;15.21;100.00;100903.56;5221672;28;20100;-73
2023/05/05 04:04:54;;;;;;;4.00;2.63;;;14.80;99.90;;;15.23;99.94;100901.84;5216802;28;19922;-67
2023/05/05 04:07:29;;;;;;;5.63;2.85;;;14.90;99.90;;;15.24;99.58;100907.97;5246864;28;20131;-67
2023/05/05 04:10:01;;;;;;;4.35;2.80;;;14.90;99.90;;;15.23;99.33;100909.72;5243155;28;20054;-67
2023/05/05 04:12:33;;;;;;;4.72;3.00;;;14.90;99.90;;;15.24;99.38;100910.59;5167075;28;20045;-67
2023/05/05 04:15:07;;;;;;;5.28;3.13;;;14.90;99.90;;;15.23;99.40;100922.84;5252008;28;20050;-67
2023/05/05 04:17:40;;;;;;;7.70;3.22;;;14.90;99.90;;;15.25;99.88;100923.75;5233607;28;20046;-66
2023/05/05 04:20:13;;;;;;;5.18;2.75;;;14.90;99.90;;;15.25;100.00;100921.13;5237575;28;20061;-66
2023/05/05 04:22:47;;;;;;;4.25;2.75;;;14.90;99.90;;;15.25;100.00;100929.00;5229884;28;20043;-67
2023/05/05 04:25:21;;;;;;;5.13;2.80;;;14.90;99.90;;;15.23;100.00;100928.09;5245480;28;20053;-66
2023/05/05 04:27:55;;;;;;;5.70;3.35;;;14.90;99.90;;;15.27;100.00;100942.19;5175212;28;20554;-67
2023/05/05 04:30:27;;;;;;;5.70;2.90;;;14.90;99.90;;;15.29;100.00;100933.47;5241804;28;20054;-67
2023/05/05 04:33:01;;;;;;;5.03;2.95;;;14.90;99.90;;;15.32;100.00;100937.88;5173715;28;20047;-67
2023/05/05 04:35:34;;;;;;;;;;;15.00;99.90;;;15.35;100.00;100940.59;5256164;28;20052;-67
2023/05/05 04:38:09;;;;;;;5.00;2.65;;;15.00;99.90;;;15.39;100.00;100940.66;5233082;28;19930;-66
2023/05/05 04:40:42;;;;;;;5.30;2.97;;;15.00;99.90;;;15.41;100.00;100953.81;5230683;28;20054;-67
2023/05/05 04:43:16;;;;;;;4.43;3.00;;;15.10;99.90;;;15.45;100.00;100946.03;5236222;28;20463;-67
2023/05/05 04:45:53;;;;;;;5.68;3.80;;;15.10;99.90;;;15.51;100.00;100944.34;5250755;28;20747;-67
2023/05/05 04:48:27;;;;;;;5.10;3.20;;;15.20;99.90;;;15.56;100.00;100948.81;5264163;28;20046;-67
2023/05/05 04:51:05;;;;;;;5.15;3.10;;;15.20;99.90;;;15.63;100.00;100944.59;5240949;28;20055;-67
2023/05/05 04:53:39;;;;;;;6.57;3.22;;;15.30;99.90;;;15.71;100.00;100949.13;5252052;28;20054;-67
2023/05/05 04:56:11;;;;;;;6.28;3.40;;;15.40;99.90;;;15.83;100.00;100948.41;5246467;28;20049;-66
2023/05/05 04:58:44;;;;;;;6.15;3.25;;;15.40;99.90;;;15.92;100.00;100952.97;5241861;28;20042;-67
2023/05/05 05:01:17;;;;;;;6.00;3.50;;;15.50;99.90;;;16.01;100.00;100953.97;5243451;28;20061;-67
2023/05/05 05:03:49;;;;;;;8.20;3.33;;;15.60;99.90;;;16.10;100.00;100949.69;5173946;28;20116;-66
2023/05/05 05:06:21;;;;;;;6.28;3.00;;;15.70;99.90;;;16.17;99.67;100944.56;5251304;28;20078;-67
2023/05/05 05:08:55;;;;;;;5.47;3.20;;;15.80;99.90;;;16.25;98.97;100950.81;5211412;28;20507;-66
2023/05/05 05:11:27;;;;;;;6.28;3.58;;;15.90;99.90;;;16.35;98.70;100950.94;5195789;28;20422;-67
2023/05/05 05:14:00;;;;;;;6.70;3.85;;;16.00;99.90;;;16.41;99.12;100959.78;5208490;28;20063;-67
2023/05/05 05:16:32;;;;;;;6.97;3.55;;;16.00;99.90;;;16.49;99.76;100958.16;5199575;28;20045;-67
2023/05/05 05:19:05;;;;;;;6.22;3.42;;;16.10;99.90;;;16.58;100.00;100956.53;5199634;28;20056;-66
2023/05/05 05:21:38;;;;;;;5.22;3.42;;;16.20;99.90;;;16.65;99.49;100959.25;5224560;28;20043;-67
2023/05/05 05:24:12;;;;;;;7.32;3.70;;;16.20;99.90;;;16.77;99.37;100962.06;5202814;28;20052;-66
2023/05/05 05:26:44;;;;;;;6.60;3.83;;;16.40;99.90;;;16.87;98.81;100964.78;5220021;28;20057;-67
2023/05/05 05:29:17;;;;;;;6.10;3.72;;;16.40;99.90;;;16.93;98.34;100976.28;5219656;28;20041;-67
2023/05/05 05:31:49;;;;;;;7.05;3.78;;;16.50;99.90;;;17.01;98.44;100971.97;5206133;28;20049;-67
2023/05/05 05:34:23;;;;;;;8.15;4.03;;;16.60;99.90;;;17.15;98.67;100976.50;5225838;28;20124;-67
2023/05/05 05:36:55;;;;;;;7.95;4.43;;;16.70;99.90;;;17.24;98.72;100977.50;5191519;28;20049;-67
2023/05/05 05:39:29;;;;;;;7.70;3.97;;;16.80;99.90;;;17.32;98.44;100974.97;5208051;28;20132;-66
2023/05/05 05:42:02;;;;;;;7.82;4.00;;;16.90;99.90;;;17.34;97.63;100979.41;5191390;28;20041;-67
2023/05/05 05:44:34;;;;;;;6.55;3.83;;;16.90;99.90;;;17.38;96.70;100977.66;5199405;28;20048;-64
2023/05/05 05:47:07;;;;;;;10.10;4.07;;;16.90;99.90;;;17.49;96.43;100981.28;5225844;28;20048;-65
2023/05/05 05:49:40;;;;;;;10.63;4.50;;;17.10;99.90;;;17.63;96.38;100982.28;5212816;28;20053;-65
2023/05/05 05:52:12;;;;;;;9.93;4.43;;;17.20;99.90;;;17.81;96.06;100978.97;5202073;28;20056;-65
2023/05/05 05:54:48;;;;;;;11.45;4.95;;;17.30;99.90;;;18.00;95.42;100982.63;5205779;28;20183;-67
2023/05/05 05:57:22;;;;;;;9.25;4.38;;;17.40;99.90;;;18.16;94.41;100979.22;5225515;28;20127;-65
2023/05/05 05:59:56;;;;;;;8.55;4.35;;;17.60;99.90;;;18.28;93.10;100982.81;5196112;28;20083;-65
2023/05/05 06:02:32;;;;;;;8.70;4.70;;;17.70;99.90;;;18.39;92.33;100986.41;5202807;28;20667;-66
2023/05/05 06:05:04;;;;;;;7.97;4.05;;;17.90;99.90;;;18.45;91.27;100981.13;5216322;28;20041;-57
2023/05/05 06:07:37;;;;;;;7.78;4.07;;;17.90;99.90;;;18.47;90.50;100981.19;5199402;28;20060;-59
2023/05/05 06:10:11;;;;;;;7.03;3.58;;;18.00;99.90;;;18.51;90.31;100983.81;5194486;28;20052;-59
2023/05/05 06:12:43;;;;;;;6.85;3.75;;;18.00;99.90;;;18.63;90.42;100993.56;5221324;28;20079;-59
2023/05/05 06:15:15;;;;;;;7.97;4.18;;;18.10;99.90;;;18.67;89.56;100993.63;5204860;28;20041;-58
2023/05/05 06:17:47;;;;;;;9.43;4.18;;;18.20;99.90;;;18.66;88.79;100998.88;5219798;28;20045;-58
2023/05/05 06:20:19;;;;;;;8.18;4.10;;;18.20;99.90;;;18.66;88.79;101002.44;5201646;28;20469;-57
2023/05/05 06:22:51;;;;;;;7.85;3.90;;;18.20;99.90;;;18.81;88.86;100998.09;5204772;28;20067;-59
2023/05/05 06:25:25;;;;;;;9.55;4.13;;;18.30;99.90;;;19.00;88.33;101005.22;5187124;28;20467;-59
2023/05/05 06:27:58;;;;;;;6.20;3.78;;;18.40;99.90;;;19.07;87.75;101006.13;5203268;28;20498;-58
2023/05/05 06:30:30;;;;;;;7.80;4.45;;;18.50;99.90;;;19.15;87.73;100997.31;5194875;28;20049;-59
2023/05/05 06:33:03;;;;;;;6.07;4.13;;;18.60;99.90;;;19.24;87.92;101000.00;5216689;28;20052;-58
2023/05/05 06:35:35;;;;;;;8.30;3.83;;;18.70;99.90;;;19.41;88.68;101004.44;5224717;28;20045;-60
2023/05/05 06:38:07;;;;;;;7.30;3.85;;;18.80;99.90;;;19.55;89.00;101007.97;5212012;28;20055;-60
2023/05/05 06:40:40;;;;;;;7.47;3.92;;;18.90;99.90;;;19.73;88.91;101013.31;5203683;28;20057;-59
2023/05/05 06:43:13;;;;;;;9.00;4.10;;;19.10;99.90;;;19.85;88.47;101007.16;5207043;28;20049;-58
2023/05/05 06:45:50;;;;;;;9.95;3.60;;;19.20;99.90;;;19.96;88.39;101010.72;5202448;28;20049;-58
2023/05/05 06:48:22;;;;;;;6.07;3.92;;;19.30;99.90;;;20.02;88.37;101015.13;5204168;28;20038;-58
2023/05/05 06:50:56;;;;;;;6.35;3.60;;;19.40;99.90;;;20.08;88.02;101009.78;5194582;28;20055;-59
2023/05/05 06:53:28;;;;;;;8.85;3.67;;;19.40;99.90;;;20.14;87.73;101009.78;5211249;28;20484;-59
2023/05/05 06:56:01;;;;;;;6.95;3.90;;;19.50;99.90;;;20.29;88.36;101009.78;5215949;28;20049;-58
2023/05/05 06:58:33;;;;;;;4.85;3.30;;;19.60;99.90;;;20.52;88.29;101007.09;5217214;28;20037;-59
2023/05/05 07:01:06;;;;;;;4.57;3.17;;;19.80;99.90;;;20.73;87.44;101005.28;5221760;28;20044;-58
2023/05/05 07:03:38;;;;;;;7.22;3.88;;;19.90;99.90;;;20.89;86.58;101011.41;5206710;28;20051;-59
2023/05/05 07:06:10;;;;;;;6.28;3.72;;;20.10;99.90;;;20.97;86.04;101015.78;5224621;28;20048;-58
2023/05/05 07:08:43;;;;;;;9.30;3.90;;;20.20;99.90;;;21.08;85.67;101015.75;5220754;28;20045;-60
2023/05/05 07:11:16;;;;;;;7.60;3.72;;;20.30;99.90;;;21.10;85.04;101006.00;5223213;28;20043;-60
2023/05/05 07:13:49;;;;;;;6.18;3.75;;;20.30;99.90;;;21.01;85.84;101019.31;5215275;28;20029;-62
2023/05/05 07:16:21;;;;;;;7.28;3.88;;;20.30;99.90;;;20.98;87.01;101021.97;5207591;28;20049;-59
2023/05/05 07:18:53;;;;;;;7.18;3.60;;;20.30;99.90;;;21.03;86.53;101033.44;5218499;28;20047;-59
2023/05/05 07:21:25;;;;;;;7.78;3.80;;;20.30;99.90;;;21.17;87.11;101033.38;5222694;28;20040;-59
2023/05/05 07:23:57;;;;;;;6.85;4.00;;;20.40;99.90;;;21.32;86.60;101038.63;5198325;28;20053;-59
2023/05/05 07:26:31;;;;;;;8.02;3.75;;;20.50;99.90;;;21.43;86.40;101036.78;5222364;28;20132;-60
2023/05/05 07:29:05;;;;;;;7.03;4.25;;;20.60;99.90;;;21.54;86.32;101034.09;5223897;28;20033;-60
2023/05/05 07:31:38;;;;;;;7.65;3.97;;;20.70;99.90;;;21.56;85.74;101037.59;5223389;28;20041;-61
2023/05/05 07:34:10;;;;;;;7.82;4.53;;;20.80;99.90;;;21.64;85.57;101035.75;5215874;28;20052;-60
2023/05/05 07:36:42;;;;;;;5.78;3.70;;;20.90;99.90;;;21.70;86.01;101034.84;5204299;23;20074;-80
2023/05/05 07:39:14;;;;;;;7.13;3.78;;;20.90;99.90;;;21.86;86.75;101029.44;5143816;28;20043;-78
2023/05/05 07:41:48;;;;;;;7.10;3.95;;;21.00;99.90;;;21.99;86.60;101032.00;5108783;28;20422;-79
2023/05/05 07:44:21;;;;;;;6.47;3.90;;;21.10;99.90;;;22.11;87.14;101032.78;5125125;28;20097;-79
2023/05/05 07:46:54;;;;;;;8.45;4.13;;;21.20;99.90;;;22.23;85.57;101034.44;5140197;28;20055;-78
2023/05/05 07:49:27;;;;;;;6.40;4.15;;;21.40;99.90;;;22.26;85.67;101036.19;5108794;28;20070;-79
2023/05/05 07:52:00;;;;;;;7.15;4.05;;;21.40;99.90;;;22.28;85.58;101034.41;5124255;28;20410;-79
2023/05/05 07:54:32;;;;;;;8.23;4.53;;;21.40;99.90;;;22.39;85.69;101036.06;5125304;28;20054;-84
2023/05/05 07:57:06;;;;;;;8.32;3.97;;;21.50;99.90;;;22.50;85.04;101041.28;5110724;28;20050;-85
2023/05/05 07:59:42;;;;;;;7.50;4.18;;;21.60;99.90;;;22.64;85.10;101035.81;5113669;28;20062;-87
2023/05/05 08:02:14;;;;;;;11.57;5.07;;;21.70;99.90;;;22.88;83.87;101032.00;5145602;28;20499;-83
2023/05/05 08:04:47;;;;;;;9.35;5.18;;;21.80;99.90;;;23.11;83.04;101035.28;5146125;28;20474;-83
2023/05/05 08:07:21;;;;;;;7.35;4.53;;;22.00;99.90;;;23.19;82.17;101033.38;5113266;28;20503;-83
2023/05/05 08:09:53;;;;;;;11.90;6.25;;;22.00;99.90;;;23.23;81.35;101024.47;5112899;28;20565;-81
2023/05/05 08:12:27;;;;;;;9.48;5.35;;;22.10;99.80;;;23.33;79.97;101033.19;5113106;28;20132;-82
2023/05/05 08:15:00;;;;;;;9.57;4.95;;;22.10;99.30;;;23.43;79.65;101025.97;5112966;28;20422;-82
2023/05/05 08:17:45;;;;;;;7.18;4.22;;;22.20;99.20;;;23.91;79.21;101035.00;5144392;28;20050;-83
2023/05/05 08:20:18;;;;;;;8.88;4.75;;;22.50;99.30;;;24.50;76.46;101035.78;5139625;28;20803;-83
2023/05/05 08:22:50;;;;;;;11.85;5.15;;;22.80;98.80;;;25.15;72.96;101036.25;5146161;28;20066;-83
2023/05/05 08:25:23;;;;;;;8.88;4.72;;;23.10;97.40;;;25.64;71.44;101036.97;5112541;28;20066;-83
2023/05/05 08:27:57;;;;;;;7.38;3.80;;;23.50;96.60;;;26.22;69.52;101039.09;5143310;28;20047;-83
2023/05/05 08:30:30;;;;;;;6.30;3.92;;;23.90;95.90;;;26.72;66.76;101044.88;5096461;28;20517;-82
2023/05/05 08:33:02;;;;;;;7.18;3.97;;;24.20;94.60;;;27.12;64.00;101042.91;5128125;28;20050;-81
2023/05/05 08:35:35;;;;;;;7.07;3.75;;;24.50;92.80;;;27.68;61.96;101046.53;5128882;28;20422;-83
2023/05/05 08:38:08;;;;;;;7.22;3.60;;;24.90;91.40;;;28.17;60.79;101044.03;5120093;28;20050;-83
2023/05/05 08:40:41;;;;;;;7.18;3.28;;;25.30;90.40;;;28.59;59.51;101036.31;5144702;28;20050;-82
2023/05/05 08:43:14;;;;;;;8.10;3.50;;;25.80;88.10;;;29.03;57.56;101039.22;5138253;28;20043;-82
2023/05/05 08:45:47;;;;;;;6.53;3.30;;;26.20;85.10;;;29.09;57.03;101045.22;5145453;28;20070;-82
2023/05/05 08:48:21;;;;;;;6.05;3.28;;;26.40;82.00;;;28.93;56.82;101033.31;5128303;28;20039;-82
2023/05/05 08:50:59;;;;;;;6.32;3.45;;;26.40;80.90;;;28.86;56.22;101038.00;5144462;28;20525;-83
2023/05/05 08:53:47;;;;;;;5.38;3.15;;;26.40;79.10;;;29.13;56.17;101040.59;5112374;28;20165;-82
2023/05/05 08:56:21;;;;;;;5.32;3.00;;;26.60;79.10;;;29.64;55.21;101036.84;5137235;28;20038;-83
2023/05/05 08:58:56;;;;;;;5.00;2.90;;;26.90;78.00;;;30.34;54.25;101039.28;5144621;28;20038;-84
2023/05/05 09:01:32;;;;;;;4.65;2.95;;;27.40;77.90;;;30.54;53.19;101046.47;5128559;28;20046;-83
2023/05/05 09:04:06;;;;;;;4.40;2.45;;;27.60;75.10;;;30.35;51.81;101041.03;5145659;28;20447;-83
2023/05/05 09:06:39;;;;;;;3.20;2.50;;;27.60;72.70;;;30.10;52.34;101045.72;5111890;28;20526;-82
2023/05/05 09:09:11;;;;;;;3.33;2.45;;;27.60;71.90;;;29.80;52.30;101043.34;5127293;28;20039;-83
2023/05/05 09:11:47;;;;;;;5.38;2.40;;;27.40;71.50;;;29.73;52.29;101044.50;5146636;28;20039;-83
2023/05/05 09:14:21;;;;;;;4.38;2.20;;;27.40;71.30;;;29.58;52.51;101040.63;5128214;28;20053;-83
2023/05/05 09:16:53;;;;;;;3.60;2.60;;;27.40;71.00;;;29.36;53.69;101037.91;5127328;28;20043;-83
2023/05/05 09:19:26;;;;;;;4.22;2.25;;;27.30;71.30;;;29.29;53.68;101041.78;5112259;28;20395;-83
2023/05/05 09:21:59;;;;;;;3.90;2.20;;;27.30;71.30;;;29.28;52.88;101050.75;5145440;28;20218;-82
2023/05/05 09:24:31;;;;;;;3.40;2.33;;;27.40;70.50;;;29.18;53.20;101054.72;5145110;28;20046;-82
2023/05/05 09:27:22;;;;;;;5.57;2.40;;;27.50;70.10;;;28.82;53.47;101052.47;5144692;28;20042;-81
2023/05/05 09:29:56;;;;;;;6.18;3.17;;;27.40;69.20;;;28.39;54.21;101045.97;5144667;28;20043;-81
2023/05/05 09:32:29;;;;;;;4.93;2.83;;;27.10;69.70;;;27.97;55.93;101042.03;5143563;28;20058;-81
2023/05/05 09:35:01;;;;;;;3.63;2.40;;;26.80;70.40;;;27.84;57.58;101039.78;5127637;28;20281;-80
2023/05/05 09:37:34;;;;;;;5.10;2.45;;;26.70;72.30;;;27.87;57.64;101029.88;5143348;28;20137;-81
2023/05/05 09:40:10;;;;;;;3.55;2.45;;;26.70;72.50;;;27.77;57.98;101024.81;5144611;28;20038;-81
2023/05/05 09:42:45;;;;;;;3.53;2.47;;;26.60;72.80;;;27.78;58.61;101021.22;5143835;28;20054;-81
2023/05/05 09:45:28;;;;;;;3.53;2.50;;;26.60;73.30;;;27.89;58.00;101014.63;5123951;28;20055;-81
2023/05/05 09:48:00;;;;;;;5.88;2.60;;;26.70;72.80;;;27.94;57.42;101018.91;5125705;28;20054;-80
2023/05/05 09:50:44;;;;;;;4.40;2.50;;;26.80;72.20;;;28.01;57.61;101017.75;5096188;28;20050;-81
2023/05/05 09:53:17;;;;;;;3.92;2.72;;;26.80;72.50;;;27.97;57.49;101018.78;5137304;28;20117;-82
2023/05/05 09:55:56;;;;;;;5.80;2.88;;;26.80;72.20;;;27.87;57.14;101024.53;5145080;28;20035;-82
2023/05/05 09:58:31;;;;;;;5.50;2.80;;;26.70;71.50;;;27.76;57.42;101017.69;5127354;28;20047;-81
2023/05/05 10:01:05;;;;;;;3.53;2.40;;;26.70;71.90;;;27.78;57.30;101015.00;5142716;28;20051;-82
2023/05/05 10:03:51;;;;;;;4.07;2.38;;;26.70;71.80;;;27.79;57.56;101019.41;5110963;28;20055;-85
2023/05/05 10:06:40;;;;;;;5.55;3.30;;;26.70;71.70;;;27.70;57.11;101009.88;5126640;28;20058;-81
2023/05/05 10:09:15;;;;;;;3.72;2.42;;;26.70;71.30;;;27.63;55.63;101013.63;5139391;28;20035;-84
2023/05/05 10:11:47;;;;;;;4.88;2.85;;;26.60;69.70;;;27.52;56.94;101015.81;5123500;28;20051;-83
2023/05/05 10:14:21;;;;;;;3.67;2.30;;;26.50;70.70;;;27.55;57.35;101013.00;5127761;28;20414;-84
2023/05/05 10:16:57;;;;;;;4.10;2.45;;;26.50;71.40;;;27.60;57.40;100997.69;5124147;28;20059;-81
2023/05/05 10:19:35;;;;;;;2.85;2.20;;;26.50;71.40;;;27.89;57.53;100996.75;5138009;28;20119;-83
2023/05/05 10:22:09;;;;;;;3.28;2.17;;;26.70;71.90;;;28.16;56.04;100988.69;5109194;28;20128;-83
2023/05/05 10:24:48;;;;;;;7.03;2.80;;;27.00;70.70;;;28.18;55.24;100995.75;5127074;28;20118;-82
2023/05/05 10:27:23;;;;;;;4.53;2.58;;;27.00;69.60;;;28.16;55.61;100991.34;5129024;28;20043;-83
2023/05/05 10:30:03;;;;;;;3.65;2.60;;;27.00;69.70;;;27.96;55.42;100979.53;5143857;28;20050;-88
2023/05/05 10:32:44;;;;;;;4.10;2.70;;;26.90;70.00;;;27.39;56.15;100974.28;5137739;28;20045;-85
2023/05/05 10:35:21;;;;;;;3.90;2.38;;;26.50;69.50;;;26.96;57.28;100975.56;5117757;28;20449;-84
2023/05/05 10:37:56;;;;;;;3.90;2.42;;;26.20;70.20;;;26.52;58.76;100970.59;5126078;28;20046;-83
2023/05/05 10:40:30;;;;;;;4.50;2.50;;;25.80;71.40;;;26.21;59.78;100962.53;5109562;28;20045;-88
2023/05/05 10:43:03;;;;;;;4.55;2.47;;;25.50;72.30;;;26.21;59.90;100966.97;5096638;28;20058;-88